Terminal Aerodrome Forecast
Issued by NWS

Home | Current Version | Previous Version | Text Only | Print | Product List | Glossary On
Versions: 1 2 3 4 5 6 7 8 9 10 11 12 13 14 15 16
000
FTUS44 KCRP 021733
TAFLRD
TAF
KLRD 021733Z 0218/0318 07004KT P6SM SKC
     FM022300 11012KT P6SM FEW100
     FM030500 08004KT P6SM SKC=

USA.gov is the U.S. government's official web portal to all federal, state and local government web resources and services.